createdAt,value
2019-01-17T00:00:34.970Z,99368.03
2019-01-17T00:01:45.696Z,99377.64
2019-01-17T00:03:03.006Z,99372.72
2019-01-17T00:04:08.250Z,99372.72
2019-01-17T00:05:31.665Z,99367.01
2019-01-17T00:06:42.620Z,99372.27
2019-01-17T00:07:59.534Z,99363.81
2019-01-17T00:09:13.311Z,99354.21
2019-01-17T00:10:21.379Z,99355.01
2019-01-17T00:11:35.152Z,99370.45
2019-01-17T00:12:55.472Z,99364.96
2019-01-17T00:14:00.674Z,99372.96
2019-01-17T00:15:13.889Z,99368.63
2019-01-17T00:16:24.922Z,99368.39
2019-01-17T00:17:41.959Z,99366.80
2019-01-17T00:18:47.178Z,99375.48
2019-01-17T00:19:55.023Z,99379.72
2019-01-17T00:21:00.326Z,99370.91
2019-01-17T00:22:22.003Z,99367.69
2019-01-17T00:23:27.282Z,99367.69
2019-01-17T00:24:48.065Z,99371.57
2019-01-17T00:25:55.809Z,99365.28
2019-01-17T00:27:09.689Z,99369.98
2019-01-17T00:28:23.873Z,99368.60
2019-01-17T00:29:29.154Z,99367.00
2019-01-17T00:30:37.152Z,99370.89
2019-01-17T00:31:59.927Z,99368.37
2019-01-17T00:33:21.114Z,99361.06
2019-01-17T00:34:26.328Z,99369.06
2019-01-17T00:35:37.381Z,99371.81
2019-01-17T00:36:54.112Z,99365.30
2019-01-17T00:38:05.008Z,99359.02
2019-01-17T00:39:16.946Z,99355.47
2019-01-17T00:40:27.746Z,99364.27
2019-01-17T00:41:41.731Z,99356.61
2019-01-17T00:42:52.413Z,99357.19
2019-01-17T00:44:00.053Z,99358.33
2019-01-17T00:45:12.330Z,99356.16
2019-01-17T00:46:35.586Z,99351.25
2019-01-17T00:47:43.683Z,99360.62
2019-01-17T00:48:48.904Z,99364.73
2019-01-17T00:49:59.833Z,99363.36
2019-01-17T00:51:20.930Z,99362.56
2019-01-17T00:52:29.173Z,99365.62
2019-01-17T00:53:34.317Z,99357.16
2019-01-17T00:54:39.527Z,99361.50
2019-01-17T00:55:50.687Z,99358.53
2019-01-17T00:56:55.837Z,99363.22
2019-01-17T00:58:06.738Z,99355.56
2019-01-17T00:59:11.904Z,99362.42
2019-01-17T01:00:18.081Z,99365.62
2019-01-17T01:01:32.114Z,99363.22
2019-01-17T01:02:37.404Z,99364.82
2019-01-17T01:03:51.005Z,99366.77
2019-01-17T01:05:11.961Z,99364.02
2019-01-17T01:06:33.245Z,99361.50
2019-01-17T01:07:54.427Z,99361.85
2019-01-17T01:09:05.207Z,99365.97
2019-01-17T01:10:12.598Z,99362.42
2019-01-17T01:11:33.430Z,99371.45
2019-01-17T01:12:44.007Z,99365.97
2019-01-17T01:14:07.261Z,99363.56
2019-01-17T01:15:15.832Z,99362.77
2019-01-17T01:16:25.129Z,99363.11
2019-01-17T01:17:30.261Z,99360.37
2019-01-17T01:18:41.224Z,99362.88
2019-01-17T01:20:02.210Z,99362.88
2019-01-17T01:21:23.388Z,99358.77
2019-01-17T01:22:28.520Z,99365.40
2019-01-17T01:23:36.384Z,99370.43
2019-01-17T01:24:53.119Z,99364.38
2019-01-17T01:26:06.862Z,99359.23
2019-01-17T01:27:12.053Z,99363.58
2019-01-17T01:28:25.747Z,99358.09
2019-01-17T01:29:33.812Z,99360.03
2019-01-17T01:30:41.828Z,99356.14
2019-01-17T01:31:47.040Z,99365.74
2019-01-17T01:33:10.051Z,99360.26
2019-01-17T01:34:23.676Z,99358.31
2019-01-17T01:35:28.813Z,99366.31
2019-01-17T01:36:34.108Z,99362.66
2019-01-17T01:37:41.918Z,99356.72
2019-01-17T01:39:02.707Z,99357.63
2019-01-17T01:40:25.837Z,99364.38
2019-01-17T01:41:30.992Z,99358.66
2019-01-17T01:42:38.823Z,99366.55
2019-01-17T01:43:59.709Z,99359.69
2019-01-17T01:45:05.058Z,99368.14
2019-01-17T01:46:16.252Z,99374.42
2019-01-17T01:47:39.278Z,99369.52
2019-01-17T01:49:00.431Z,99372.48
2019-01-17T01:50:12.961Z,99373.28
2019-01-17T01:51:29.862Z,99371.34
2019-01-17T01:52:43.627Z,99370.77
2019-01-17T01:53:47.116Z,99380.37
2019-01-17T01:54:50.646Z,99371.91
2019-01-17T01:55:54.128Z,99375.11
2019-01-17T01:56:57.710Z,99379.56
2019-01-17T01:58:01.266Z,99377.17
2019-01-17T01:59:04.984Z,99372.26
2019-01-17T02:00:11.083Z,99373.63
2019-01-17T02:01:14.703Z,99372.03
2019-01-17T02:02:18.297Z,99366.31
2019-01-17T02:03:21.792Z,99368.03
2019-01-17T02:04:25.441Z,99370.77
2019-01-17T02:05:29.038Z,99369.41
2019-01-17T02:06:32.531Z,99373.86
2019-01-17T02:07:36.172Z,99376.60
2019-01-17T02:08:39.659Z,99374.66
2019-01-17T02:09:43.295Z,99384.60
2019-01-17T02:10:48.890Z,99374.20
2019-01-17T02:11:52.097Z,99378.63
2019-01-17T02:12:55.588Z,99383.54
2019-01-17T02:13:59.421Z,99383.54
2019-01-17T02:15:02.990Z,99379.20
2019-01-17T02:16:06.611Z,99380.09
2019-01-17T02:17:10.372Z,99382.25
2019-01-17T02:18:13.999Z,99376.77
2019-01-17T02:19:17.572Z,99382.59
2019-01-17T02:20:21.304Z,99380.66
2019-01-17T02:21:24.955Z,99380.20
2019-01-17T02:22:28.449Z,99380.43
2019-01-17T02:23:31.966Z,99381.57
2019-01-17T02:24:35.519Z,99386.48
2019-01-17T02:25:39.028Z,99390.59
2019-01-17T02:26:42.657Z,99386.48
2019-01-17T02:27:46.232Z,99387.62
2019-01-17T02:28:49.733Z,99392.54
2019-01-17T02:29:53.231Z,99384.31
2019-01-17T02:30:56.730Z,99386.25
2019-01-17T02:32:00.247Z,99378.95
2019-01-17T02:33:03.806Z,99389.80
2019-01-17T02:34:07.374Z,99383.52
2019-01-17T02:35:11.095Z,99384.09
2019-01-17T02:36:14.722Z,99385.45
2019-01-17T02:37:18.420Z,99387.97
2019-01-17T02:38:22.058Z,99387.97
2019-01-17T02:39:25.545Z,99390.14
2019-01-17T02:40:29.057Z,99387.97
2019-01-17T02:41:32.550Z,99387.17
2019-01-17T02:42:36.139Z,99384.77
2019-01-17T02:43:39.771Z,99387.73
2019-01-17T02:44:43.335Z,99386.37
2019-01-17T02:45:47.040Z,99387.52
2019-01-17T02:46:50.590Z,99388.31
2019-01-17T02:47:54.185Z,99384.20
2019-01-17T02:48:57.680Z,99379.29
2019-01-17T02:50:01.248Z,99376.31
2019-01-17T02:51:04.886Z,99376.31
2019-01-17T02:52:08.575Z,99379.06
2019-01-17T02:53:12.088Z,99375.29
2019-01-17T02:54:15.583Z,99373.34
2019-01-17T02:55:19.362Z,99378.03
2019-01-17T02:56:22.936Z,99377.23
2019-01-17T02:57:26.631Z,99376.43
2019-01-17T02:58:30.227Z,99377.00
2019-01-17T02:59:33.716Z,99375.86
2019-01-17T03:00:37.282Z,99377.45
2019-01-17T03:01:40.865Z,99376.66
2019-01-17T03:02:44.790Z,99370.38
2019-01-17T03:03:48.425Z,99378.26
2019-01-17T03:04:51.916Z,99381.00
2019-01-17T03:05:55.405Z,99376.31
2019-01-17T03:06:59.035Z,99377.69
2019-01-17T03:08:02.540Z,99376.43
2019-01-17T03:09:08.049Z,99376.66
2019-01-17T03:10:16.198Z,99380.20
2019-01-17T03:11:19.741Z,99379.97
2019-01-17T03:12:23.305Z,99369.80
2019-01-17T03:13:26.963Z,99373.34
2019-01-17T03:14:30.465Z,99375.86
2019-01-17T03:15:34.046Z,99378.60
2019-01-17T03:16:37.601Z,99379.97
2019-01-17T03:17:41.086Z,99371.75
2019-01-17T03:18:44.639Z,99374.48
2019-01-17T03:19:48.160Z,99370.95
2019-01-17T03:20:51.837Z,99363.52
2019-01-17T03:21:55.375Z,99355.61
2019-01-17T03:22:58.893Z,99360.78
2019-01-17T03:24:02.518Z,99353.13
2019-01-17T03:25:08.215Z,99348.76
2019-01-17T03:26:11.825Z,99345.22
2019-01-17T03:27:15.294Z,99336.99
2019-01-17T03:28:18.806Z,99334.02
2019-01-17T03:29:22.419Z,99335.17
2019-01-17T03:30:26.190Z,99342.02
2019-01-17T03:31:29.863Z,99351.27
2019-01-17T03:32:33.408Z,99348.88
2019-01-17T03:33:37.074Z,99339.05
2019-01-17T03:34:40.533Z,99343.73
2019-01-17T03:35:44.130Z,99344.53
2019-01-17T03:36:47.810Z,99342.94
2019-01-17T03:37:51.414Z,99348.64
2019-01-17T03:38:54.911Z,99339.39
2019-01-17T03:39:58.409Z,99345.67
2019-01-17T03:41:01.987Z,99352.30
2019-01-17T03:42:05.652Z,99346.36
2019-01-17T03:43:09.254Z,99346.36
2019-01-17T03:44:12.797Z,99344.53
2019-01-17T03:45:16.560Z,99344.53
2019-01-17T03:46:20.072Z,99341.56
2019-01-17T03:47:23.715Z,99338.02
2019-01-17T03:48:27.294Z,99340.77
2019-01-17T03:49:30.931Z,99337.00
2019-01-17T03:50:34.580Z,99331.52
2019-01-17T03:51:38.226Z,99335.39
2019-01-17T03:52:41.932Z,99339.25
2019-01-17T03:53:45.431Z,99344.42
2019-01-17T03:54:52.789Z,99344.99
2019-01-17T03:55:54.597Z,99339.02
2019-01-17T03:56:58.254Z,99340.63
2019-01-17T03:58:01.931Z,99341.98
2019-01-17T03:59:05.498Z,99345.07
2019-01-17T04:00:17.394Z,99340.39
2019-01-17T04:01:21.037Z,99341.53
2019-01-17T04:02:24.629Z,99344.50
2019-01-17T04:03:28.252Z,99346.44
2019-01-17T04:04:31.760Z,99347.81
2019-01-17T04:05:35.268Z,99348.95
2019-01-17T04:06:38.887Z,99350.90
2019-01-17T04:07:42.646Z,99347.92
2019-01-17T04:08:46.204Z,99350.67
2019-01-17T04:09:49.938Z,99355.58
2019-01-17T04:10:53.462Z,99356.95
2019-01-17T04:11:57.033Z,99352.84
2019-01-17T04:13:00.570Z,99360.83
2019-01-17T04:14:04.237Z,99359.69
2019-01-17T04:15:09.655Z,99353.41
2019-01-17T04:16:13.228Z,99356.38
2019-01-17T04:17:16.770Z,99356.72
2019-01-17T04:18:20.319Z,99357.52
2019-01-17T04:19:23.832Z,99354.55
2019-01-17T04:20:27.463Z,99350.44
2019-01-17T04:21:31.067Z,99350.78
2019-01-17T04:22:34.629Z,99352.72
2019-01-17T04:23:38.195Z,99346.44
2019-01-17T04:24:41.702Z,99351.92
2019-01-17T04:25:45.329Z,99346.78
2019-01-17T04:26:48.867Z,99345.52
2019-01-17T04:27:52.379Z,99348.95
2019-01-17T04:28:55.941Z,99344.05
2019-01-17T04:29:59.433Z,99346.33
2019-01-17T04:31:02.979Z,99344.95
2019-01-17T04:32:06.620Z,99342.78
2019-01-17T04:33:10.211Z,99345.52
2019-01-17T04:34:13.781Z,99343.36
2019-01-17T04:35:17.559Z,99334.68
2019-01-17T04:36:21.026Z,99342.55
2019-01-17T04:37:24.663Z,99339.59
2019-01-17T04:38:28.210Z,99347.23
2019-01-17T04:39:31.787Z,99346.44
2019-01-17T04:40:35.360Z,99346.44
2019-01-17T04:41:38.920Z,99347.58
2019-01-17T04:42:42.503Z,99347.01
2019-01-17T04:43:46.071Z,99339.09
2019-01-17T04:44:49.609Z,99339.67
2019-01-17T04:45:53.215Z,99343.78
2019-01-17T04:46:56.669Z,99341.61
2019-01-17T04:48:00.163Z,99339.67
2019-01-17T04:49:03.755Z,99341.38
2019-01-17T04:50:10.049Z,99341.15
2019-01-17T04:51:13.732Z,99341.72
2019-01-17T04:52:18.215Z,99336.35
2019-01-17T04:53:21.714Z,99327.80
2019-01-17T04:54:25.393Z,99336.02
2019-01-17T04:55:28.986Z,99335.21
2019-01-17T04:56:32.621Z,99333.05
2019-01-17T04:57:36.197Z,99327.33
2019-01-17T04:58:39.679Z,99332.81
2019-01-17T04:59:43.196Z,99324.94
2019-01-17T05:00:46.789Z,99331.45
2019-01-17T05:01:50.328Z,99327.11
2019-01-17T05:02:53.980Z,99322.20
2019-01-17T05:03:57.541Z,99320.83
2019-01-17T05:05:01.110Z,99335.33
2019-01-17T05:06:04.981Z,99337.84
2019-01-17T05:07:08.598Z,99331.09
2019-01-17T05:08:12.251Z,99339.20
2019-01-17T05:09:15.739Z,99332.02
2019-01-17T05:10:19.367Z,99341.03
2019-01-17T05:11:23.004Z,99341.49
2019-01-17T05:12:26.612Z,99340.01
2019-01-17T05:13:30.278Z,99339.93
2019-01-17T05:14:33.817Z,99340.39
2019-01-17T05:15:37.365Z,99347.27
2019-01-17T05:16:40.887Z,99344.79
2019-01-17T05:17:44.464Z,99343.19
2019-01-17T05:18:47.957Z,99335.47
2019-01-17T05:19:51.473Z,99340.14
2019-01-17T05:20:55.101Z,99333.52
2019-01-17T05:21:58.670Z,99328.95
2019-01-17T05:23:02.162Z,99337.05
2019-01-17T05:24:05.902Z,99333.61
2019-01-17T05:25:12.755Z,99336.91
2019-01-17T05:26:15.067Z,99329.13
2019-01-17T05:27:18.724Z,99334.22
2019-01-17T05:28:22.289Z,99323.61
2019-01-17T05:29:25.763Z,99328.05
2019-01-17T05:30:29.308Z,99329.39
2019-01-17T05:31:32.819Z,99331.78
2019-01-17T05:32:36.793Z,99332.31
2019-01-17T05:33:40.481Z,99334.31
2019-01-17T05:34:44.063Z,99330.89
2019-01-17T05:35:47.670Z,99334.53
2019-01-17T05:36:51.198Z,99332.19
2019-01-17T05:37:54.671Z,99328.40
2019-01-17T05:38:58.285Z,99329.06
2019-01-17T05:40:01.797Z,99328.13
2019-01-17T05:41:05.580Z,99331.41
2019-01-17T05:42:09.289Z,99331.17
2019-01-17T05:43:12.893Z,99330.02
2019-01-17T05:44:16.502Z,99325.76
2019-01-17T05:45:20.153Z,99326.06
2019-01-17T05:46:23.875Z,99332.25
2019-01-17T05:47:27.474Z,99327.41
2019-01-17T05:48:31.073Z,99329.95
2019-01-17T05:49:34.635Z,99333.62
2019-01-17T05:50:38.153Z,99333.95
2019-01-17T05:51:41.784Z,99334.53
2019-01-17T05:52:45.375Z,99335.91
2019-01-17T05:53:48.883Z,99333.43
2019-01-17T05:54:52.458Z,99338.92
2019-01-17T05:55:55.943Z,99340.44
2019-01-17T05:56:59.495Z,99334.72
2019-01-17T05:58:03.103Z,99331.09
2019-01-17T05:59:06.681Z,99336.33
2019-01-17T06:00:15.741Z,99335.31
2019-01-17T06:01:19.226Z,99338.06
2019-01-17T06:02:22.800Z,99331.19
2019-01-17T06:03:26.307Z,99324.31
2019-01-17T06:04:29.801Z,99324.89
2019-01-17T06:05:33.373Z,99330.83
2019-01-17T06:06:36.913Z,99327.41
2019-01-17T06:07:40.436Z,99328.64
2019-01-17T06:08:43.944Z,99328.86
2019-01-17T06:09:47.506Z,99337.06
2019-01-17T06:10:51.089Z,99331.09
2019-01-17T06:11:54.655Z,99331.55
2019-01-17T06:12:58.300Z,99330.64
2019-01-17T06:14:01.880Z,99328.91
2019-01-17T06:15:08.605Z,99334.98
2019-01-17T06:16:12.241Z,99342.77
2019-01-17T06:17:15.748Z,99334.30
2019-01-17T06:18:19.250Z,99329.15
2019-01-17T06:19:22.768Z,99326.17
2019-01-17T06:20:26.342Z,99332.00
2019-01-17T06:21:29.951Z,99334.53
2019-01-17T06:22:33.441Z,99331.70
2019-01-17T06:23:36.921Z,99336.05
2019-01-17T06:24:40.510Z,99333.20
2019-01-17T06:25:44.065Z,99332.77
2019-01-17T06:26:47.616Z,99334.23
2019-01-17T06:27:51.178Z,99333.52
2019-01-17T06:28:54.673Z,99334.31
2019-01-17T06:29:58.261Z,99331.20
2019-01-17T06:31:01.756Z,99328.45
2019-01-17T06:32:05.385Z,99326.84
2019-01-17T06:33:08.878Z,99331.19
2019-01-17T06:34:12.434Z,99325.82
2019-01-17T06:35:16.279Z,99328.57
2019-01-17T06:36:20.005Z,99329.02
2019-01-17T06:37:23.563Z,99321.48
2019-01-17T06:38:27.143Z,99319.30
2019-01-17T06:39:30.640Z,99320.78
2019-01-17T06:40:34.427Z,99309.34
2019-01-17T06:41:38.067Z,99315.55
2019-01-17T06:42:41.563Z,99317.64
2019-01-17T06:43:45.122Z,99324.08
2019-01-17T06:44:48.715Z,99323.38
2019-01-17T06:45:52.223Z,99319.53
2019-01-17T06:46:55.780Z,99322.27
2019-01-17T06:47:59.271Z,99327.28
2019-01-17T06:49:02.799Z,99325.33
2019-01-17T06:50:09.305Z,99322.48
2019-01-17T06:51:12.833Z,99323.01
2019-01-17T06:52:16.329Z,99324.69
2019-01-17T06:53:19.814Z,99325.27
2019-01-17T06:54:23.291Z,99324.00
2019-01-17T06:55:26.898Z,99323.17
2019-01-17T06:56:30.426Z,99327.55
2019-01-17T06:57:34.130Z,99331.20
2019-01-17T06:58:37.640Z,99324.69
2019-01-17T06:59:41.207Z,99330.77
2019-01-17T07:00:44.841Z,99334.09
2019-01-17T07:01:48.368Z,99319.91
2019-01-17T07:02:51.911Z,99329.53
2019-01-17T07:03:55.481Z,99329.00
2019-01-17T07:04:59.053Z,99322.48
2019-01-17T07:06:02.612Z,99334.50
2019-01-17T07:07:06.142Z,99329.71
2019-01-17T07:08:09.885Z,99330.51
2019-01-17T07:09:13.537Z,99334.38
2019-01-17T07:10:18.097Z,99337.60
2019-01-17T07:11:21.711Z,99329.80
2019-01-17T07:12:25.215Z,99333.34
2019-01-17T07:13:28.744Z,99335.65
2019-01-17T07:14:32.194Z,99331.63
2019-01-17T07:15:35.883Z,99340.92
2019-01-17T07:16:39.449Z,99345.05
2019-01-17T07:17:43.091Z,99342.52
2019-01-17T07:18:46.662Z,99340.35
2019-01-17T07:19:50.135Z,99342.62
2019-01-17T07:20:53.608Z,99338.64
2019-01-17T07:21:57.175Z,99337.84
2019-01-17T07:23:00.753Z,99336.47
2019-01-17T07:24:04.637Z,99334.08
2019-01-17T07:25:10.047Z,99334.78
2019-01-17T07:26:13.597Z,99339.13
2019-01-17T07:27:17.195Z,99330.44
2019-01-17T07:28:20.695Z,99334.78
2019-01-17T07:29:24.243Z,99336.16
2019-01-17T07:30:27.824Z,99330.80
2019-01-17T07:31:31.368Z,99336.38
2019-01-17T07:32:35.010Z,99332.25
2019-01-17T07:33:38.551Z,99340.59
2019-01-17T07:34:42.025Z,99337.95
2019-01-17T07:35:45.531Z,99333.26
2019-01-17T07:36:49.135Z,99339.20
2019-01-17T07:37:52.687Z,99340.70
2019-01-17T07:38:56.294Z,99338.75
2019-01-17T07:39:59.797Z,99338.75
2019-01-17T07:41:03.435Z,99334.05
2019-01-17T07:42:07.083Z,99336.80
2019-01-17T07:43:10.780Z,99343.45
2019-01-17T07:44:14.388Z,99339.79
2019-01-17T07:45:23.636Z,99341.22
2019-01-17T07:46:27.130Z,99339.27
2019-01-17T07:47:30.778Z,99343.66
2019-01-17T07:48:34.383Z,99345.08
2019-01-17T07:49:38.260Z,99343.72
2019-01-17T07:50:41.769Z,99345.48
2019-01-17T07:51:45.324Z,99351.55
2019-01-17T07:52:49.063Z,99351.59
2019-01-17T07:53:52.624Z,99346.80
2019-01-17T07:54:56.228Z,99352.99
2019-01-17T07:55:59.963Z,99347.28
2019-01-17T07:57:03.513Z,99354.36
2019-01-17T07:58:07.056Z,99352.09
2019-01-17T07:59:10.583Z,99360.23
2019-01-17T08:00:17.165Z,99353.36
2019-01-17T08:01:20.758Z,99355.31
2019-01-17T08:02:24.319Z,99350.62
2019-01-17T08:03:27.877Z,99353.23
2019-01-17T08:04:31.535Z,99348.42
2019-01-17T08:05:35.200Z,99350.47
2019-01-17T08:06:38.848Z,99345.67
2019-01-17T08:07:42.486Z,99346.13
2019-01-17T08:08:46.112Z,99355.06
2019-01-17T08:09:49.679Z,99349.80
2019-01-17T08:10:53.203Z,99349.80
2019-01-17T08:11:56.688Z,99350.25
2019-01-17T08:13:00.384Z,99358.04
2019-01-17T08:14:04.069Z,99351.75
2019-01-17T08:15:09.811Z,99349.80
2019-01-17T08:16:13.393Z,99352.55
2019-01-17T08:17:17.112Z,99348.65
2019-01-17T08:18:20.611Z,99357.34
2019-01-17T08:19:24.231Z,99352.64
2019-01-17T08:20:27.860Z,99347.72
2019-01-17T08:21:31.378Z,99346.70
2019-01-17T08:22:34.861Z,99351.14
2019-01-17T08:23:38.433Z,99352.73
2019-01-17T08:24:41.911Z,99354.11
2019-01-17T08:25:45.479Z,99354.46
2019-01-17T08:26:49.028Z,99354.46
2019-01-17T08:27:52.653Z,99352.64
2019-01-17T08:28:56.163Z,99352.77
2019-01-17T08:29:59.667Z,99357.81
2019-01-17T08:31:03.355Z,99356.80
2019-01-17T08:32:06.881Z,99350.25
2019-01-17T08:33:10.386Z,99353.92
2019-01-17T08:34:13.943Z,99355.29
2019-01-17T08:35:18.164Z,99358.93
2019-01-17T08:36:21.858Z,99360.43
2019-01-17T08:37:25.544Z,99361.70
2019-01-17T08:38:29.049Z,99358.95
2019-01-17T08:39:33.265Z,99362.63
2019-01-17T08:40:36.767Z,99352.80
2019-01-17T08:41:40.270Z,99356.91
2019-01-17T08:42:43.923Z,99359.20
2019-01-17T08:43:47.497Z,99358.75
2019-01-17T08:44:50.973Z,99345.92
2019-01-17T08:45:54.481Z,99353.13
2019-01-17T08:46:57.976Z,99350.16
2019-01-17T08:48:01.545Z,99347.99
2019-01-17T08:49:05.257Z,99348.34
2019-01-17T08:50:11.860Z,99354.98
2019-01-17T08:51:15.407Z,99355.33
2019-01-17T08:52:18.977Z,99354.53
2019-01-17T08:53:22.623Z,99349.96
2019-01-17T08:54:26.261Z,99353.28
2019-01-17T08:55:29.916Z,99344.25
2019-01-17T08:56:33.440Z,99349.16
2019-01-17T08:57:37.009Z,99351.91
2019-01-17T08:58:40.539Z,99343.45
2019-01-17T08:59:44.041Z,99350.08
2019-01-17T09:00:47.703Z,99344.11
2019-01-17T09:01:51.267Z,99346.63
2019-01-17T09:02:54.997Z,99349.16
2019-01-17T09:03:58.754Z,99353.84
2019-01-17T09:05:02.249Z,99353.05
2019-01-17T09:06:05.852Z,99348.47
2019-01-17T09:07:09.412Z,99349.62
2019-01-17T09:08:12.979Z,99359.80
2019-01-17T09:09:16.505Z,99350.77
2019-01-17T09:10:28.108Z,99347.80
2019-01-17T09:11:31.620Z,99348.15
2019-01-17T09:12:35.172Z,99343.23
2019-01-17T09:13:38.669Z,99342.78
2019-01-17T09:14:42.180Z,99338.19
2019-01-17T09:15:45.740Z,99341.84
2019-01-17T09:16:49.311Z,99335.91
2019-01-17T09:17:52.934Z,99334.88
2019-01-17T09:18:56.471Z,99336.38
2019-01-17T09:20:00.001Z,99331.58
2019-01-17T09:21:03.554Z,99327.91
2019-01-17T09:22:07.120Z,99328.48
2019-01-17T09:23:10.748Z,99323.69
2019-01-17T09:24:14.248Z,99328.38
2019-01-17T09:25:18.307Z,99323.58
2019-01-17T09:26:21.859Z,99323.13
2019-01-17T09:27:25.373Z,99317.76
2019-01-17T09:28:28.924Z,99319.48
2019-01-17T09:29:32.480Z,99322.53
2019-01-17T09:30:36.214Z,99317.39
2019-01-17T09:31:39.760Z,99316.48
2019-01-17T09:32:43.400Z,99314.55
2019-01-17T09:33:46.906Z,99311.92
2019-01-17T09:34:50.427Z,99311.92
2019-01-17T09:35:54.023Z,99320.04
2019-01-17T09:36:57.604Z,99319.24
2019-01-17T09:38:01.174Z,99313.62
2019-01-17T09:39:07.150Z,99313.88
2019-01-17T09:40:13.374Z,99313.05
2019-01-17T09:41:17.071Z,99315.87
2019-01-17T09:42:20.570Z,99310.97
2019-01-17T09:43:24.053Z,99314.85
2019-01-17T09:44:27.555Z,99315.20
2019-01-17T09:45:31.050Z,99310.28
2019-01-17T09:46:34.565Z,99307.66
2019-01-17T09:47:38.219Z,99308.23
2019-01-17T09:48:41.699Z,99309.38
2019-01-17T09:49:45.261Z,99303.44
2019-01-17T09:50:48.748Z,99302.86
2019-01-17T09:51:52.392Z,99302.06
2019-01-17T09:52:55.976Z,99301.84
2019-01-17T09:53:59.596Z,99292.91
2019-01-17T09:55:03.219Z,99293.39
2019-01-17T09:56:08.072Z,99296.92
2019-01-17T09:57:11.762Z,99301.61
2019-01-17T09:58:15.327Z,99298.04
2019-01-17T09:59:18.822Z,99295.64
2019-01-17T10:00:30.032Z,99298.61
2019-01-17T10:01:33.674Z,99289.94
2019-01-17T10:02:37.995Z,99290.16
2019-01-17T10:03:41.448Z,99283.08
2019-01-17T10:04:44.933Z,99283.66
2019-01-17T10:05:48.426Z,99288.56
2019-01-17T10:06:51.913Z,99284.80
2019-01-17T10:07:55.571Z,99288.34
2019-01-17T10:08:59.129Z,99285.37
2019-01-17T10:10:03.784Z,99285.37
2019-01-17T10:11:07.266Z,99278.86
2019-01-17T10:12:10.886Z,99278.63
2019-01-17T10:13:14.499Z,99277.83
2019-01-17T10:14:18.204Z,99279.78
2019-01-17T10:15:33.354Z,99271.67
2019-01-17T10:16:40.253Z,99267.78
2019-01-17T10:17:46.792Z,99271.67
2019-01-17T10:19:08.036Z,99264.25
2019-01-17T10:20:20.425Z,99261.84
2019-01-17T10:21:41.178Z,99259.68
2019-01-17T10:22:50.780Z,99256.14
2019-01-17T10:24:21.321Z,99249.86
2019-01-17T10:25:27.849Z,99246.06
2019-01-17T10:26:43.053Z,99246.89
2019-01-17T10:27:52.420Z,99245.03
2019-01-17T10:29:20.073Z,99241.50
2019-01-17T10:30:26.657Z,99238.53
2019-01-17T10:31:51.002Z,99232.83
2019-01-17T10:33:21.405Z,99231.45
2019-01-17T10:34:42.787Z,99234.54
2019-01-17T10:36:08.504Z,99228.26
2019-01-17T10:37:30.149Z,99230.20
2019-01-17T10:38:42.599Z,99222.33
2019-01-17T10:40:20.217Z,99218.56
2019-01-17T10:41:38.178Z,99219.12
2019-01-17T10:42:47.347Z,99224.38
2019-01-17T10:44:02.608Z,99229.30
2019-01-17T10:45:27.211Z,99228.84
2019-01-17T10:46:57.202Z,99230.20
2019-01-17T10:48:09.518Z,99231.92
2019-01-17T10:49:50.654Z,99227.81
2019-01-17T10:51:00.183Z,99237.14
2019-01-17T10:52:12.425Z,99235.55
2019-01-17T10:53:39.734Z,99232.01
2019-01-17T10:54:52.036Z,99232.35
2019-01-17T10:56:07.208Z,99230.76
2019-01-17T10:57:19.454Z,99233.49
2019-01-17T10:58:37.678Z,99221.16
2019-01-17T10:59:53.313Z,99220.14
2019-01-17T11:01:11.945Z,99220.48
2019-01-17T11:02:43.774Z,99228.70
2019-01-17T11:03:59.169Z,99230.64
2019-01-17T11:05:30.636Z,99235.09
2019-01-17T11:07:02.201Z,99248.80
2019-01-17T11:08:11.576Z,99251.65
2019-01-17T11:09:33.028Z,99256.56
2019-01-17T11:10:45.310Z,99259.87
2019-01-17T11:12:06.790Z,99259.07
2019-01-17T11:13:34.230Z,99257.24
2019-01-17T11:14:59.756Z,99255.88
2019-01-17T11:16:12.217Z,99248.77
2019-01-17T11:17:18.753Z,99247.97
2019-01-17T11:18:25.294Z,99256.98
2019-01-17T11:19:40.720Z,99254.50
2019-01-17T11:21:06.775Z,99253.36
2019-01-17T11:22:30.005Z,99253.59
2019-01-17T11:23:47.840Z,99256.78
2019-01-17T11:25:18.158Z,99253.25
2019-01-17T11:26:40.724Z,99255.30
2019-01-17T11:27:52.871Z,99254.95
2019-01-17T11:29:16.004Z,99249.48
2019-01-17T11:30:49.370Z,99258.72
2019-01-17T11:32:12.202Z,99266.38
2019-01-17T11:33:29.917Z,99243.42
2019-01-17T11:34:48.579Z,99254.84
2019-01-17T11:35:57.526Z,99255.41
2019-01-17T11:37:38.505Z,99250.73
2019-01-17T11:38:56.470Z,99257.58
2019-01-17T11:40:11.746Z,99253.47
2019-01-17T11:41:27.153Z,99252.67
2019-01-17T11:42:39.451Z,99248.34
2019-01-17T11:44:02.478Z,99248.11
2019-01-17T11:45:11.827Z,99255.19
2019-01-17T11:46:24.186Z,99252.22
2019-01-17T11:47:39.554Z,99243.77
2019-01-17T11:48:54.560Z,99250.62
2019-01-17T11:50:15.903Z,99245.72
2019-01-17T11:51:28.330Z,99249.02
2019-01-17T11:52:46.871Z,99248.45
2019-01-17T11:53:56.090Z,99248.00
2019-01-17T11:55:24.708Z,99243.66
2019-01-17T11:56:43.138Z,99245.60
2019-01-17T11:57:55.758Z,99235.78
2019-01-17T11:59:27.832Z,99242.41
2019-01-17T12:00:49.110Z,99245.60
2019-01-17T12:02:01.494Z,99239.44
2019-01-17T12:03:13.714Z,99244.09
2019-01-17T12:04:23.010Z,99246.59
2019-01-17T12:05:26.516Z,99247.17
2019-01-17T12:06:30.099Z,99244.42
2019-01-17T12:07:33.767Z,99246.14
2019-01-17T12:08:37.266Z,99241.80
2019-01-17T12:09:40.897Z,99243.41
2019-01-17T12:10:44.453Z,99242.60
2019-01-17T12:11:48.049Z,99246.72
2019-01-17T12:12:51.779Z,99247.28
2019-01-17T12:13:55.347Z,99248.66
2019-01-17T12:14:59.243Z,99240.44
2019-01-17T12:16:02.804Z,99241.80
2019-01-17T12:17:06.381Z,99252.19
2019-01-17T12:18:09.947Z,99244.20
2019-01-17T12:19:13.507Z,99245.00
2019-01-17T12:20:17.095Z,99249.56
2019-01-17T12:21:20.649Z,99250.94
2019-01-17T12:22:24.848Z,99251.77
2019-01-17T12:23:28.368Z,99258.05
2019-01-17T12:24:31.931Z,99256.10
2019-01-17T12:25:35.491Z,99261.58
2019-01-17T12:26:39.054Z,99267.06
2019-01-17T12:27:42.875Z,99268.43
2019-01-17T12:28:46.460Z,99269.80
2019-01-17T12:29:50.020Z,99274.70
2019-01-17T12:30:53.500Z,99269.23
2019-01-17T12:31:57.192Z,99267.86
2019-01-17T12:33:00.711Z,99272.77
2019-01-17T12:34:04.637Z,99273.11
2019-01-17T12:35:09.968Z,99280.53
2019-01-17T12:36:13.519Z,99281.33
2019-01-17T12:37:17.021Z,99281.90
2019-01-17T12:38:20.528Z,99281.33
2019-01-17T12:39:24.160Z,99275.05
2019-01-17T12:40:27.658Z,99276.16
2019-01-17T12:41:31.145Z,99287.12
2019-01-17T12:42:34.679Z,99288.26
2019-01-17T12:43:38.341Z,99295.11
2019-01-17T12:44:42.022Z,99291.57
2019-01-17T12:45:45.617Z,99298.98
2019-01-17T12:46:49.184Z,99297.62
2019-01-17T12:47:52.672Z,99297.95
2019-01-17T12:48:56.201Z,99299.33
2019-01-17T12:49:59.669Z,99305.38
2019-01-17T12:51:03.163Z,99298.30
2019-01-17T12:52:06.731Z,99313.37
2019-01-17T12:53:10.275Z,99302.18
2019-01-17T12:54:13.867Z,99307.43
2019-01-17T12:55:17.510Z,99306.06
2019-01-17T12:56:20.978Z,99303.09
2019-01-17T12:57:24.481Z,99307.77
2019-01-17T12:58:28.031Z,99311.31
2019-01-17T12:59:31.631Z,99309.70
2019-01-17T13:00:35.293Z,99315.19
2019-01-17T13:01:38.840Z,99317.70
2019-01-17T13:02:42.427Z,99315.30